Time;durP1;ratioP1;P1;durP2;ratioP2;P2;SDS_P1;SDS_P2;PMS_P1;PMS_P2;Temp;Humidity;BMP_temperature;BMP_pressure;BME280_temperature;BME280_humidity;BME280_pressure;Samples;Min_cycle;Max_cycle;Signal;HPM_P1;HPM_P2
2023/01/31 00:00:06;;;;;;;6.60;2.40;;;6.20;99.90;;;;;;5033247;28;20215;-70
2023/01/31 00:02:32;;;;;;;6.63;1.93;;;6.10;99.90;;;;;;5033394;28;20175;-70
2023/01/31 00:04:58;;;;;;;4.27;2.50;;;6.20;99.90;;;;;;5032958;28;20415;-70
2023/01/31 00:07:24;;;;;;;10.27;4.40;;;6.20;99.90;;;;;;5033261;28;20919;-70
2023/01/31 00:09:49;;;;;;;11.27;3.77;;;6.10;99.90;;;;;;5032984;28;21034;-71
2023/01/31 00:12:15;;;;;;;8.40;3.13;;;6.20;99.90;;;;;;5033124;28;20899;-70
2023/01/31 00:14:41;;;;;;;16.27;3.87;;;6.10;99.90;;;;;;5032890;28;20195;-70
2023/01/31 00:17:06;;;;;;;7.27;2.57;;;6.20;99.90;;;;;;5044906;28;20178;-70
2023/01/31 00:19:31;;;;;;;7.03;2.93;;;6.10;99.90;;;;;;5033832;28;20252;-70
2023/01/31 00:21:57;;;;;;;14.73;3.27;;;6.10;99.90;;;;;;5031680;28;20232;-70
2023/01/31 00:24:22;;;;;;;7.23;2.20;;;6.20;99.90;;;;;;5032737;28;20592;-70
2023/01/31 00:26:55;;;;;;;4.90;2.17;;;6.10;99.90;;;;;;5032864;28;20167;-71
2023/01/31 00:29:21;;;;;;;7.53;2.53;;;6.10;99.90;;;;;;5032106;28;20184;-71
2023/01/31 00:31:46;;;;;;;4.80;1.70;;;6.20;99.90;;;;;;5059618;28;20444;-71
2023/01/31 00:34:12;;;;;;;6.27;2.60;;;6.10;99.90;;;;;;5072591;28;20412;-71
2023/01/31 00:36:38;;;;;;;2.43;1.70;;;6.10;99.90;;;;;;5072539;28;20828;-70
2023/01/31 00:39:05;;;;;;;11.00;2.07;;;6.10;99.90;;;;;;5072518;28;20189;-71
2023/01/31 00:41:31;;;;;;;11.53;2.53;;;6.00;99.90;;;;;;5072546;28;20307;-70
2023/01/31 00:43:57;;;;;;;10.43;2.67;;;6.00;99.90;;;;;;5072406;28;20487;-71
2023/01/31 00:46:23;;;;;;;10.27;3.17;;;6.00;99.90;;;;;;5049838;28;20426;-71
2023/01/31 00:48:49;;;;;;;6.67;2.43;;;5.80;99.90;;;;;;5040263;28;20809;-70
2023/01/31 00:51:15;;;;;;;5.43;2.23;;;5.70;99.90;;;;;;5031234;28;20446;-70
2023/01/31 00:53:41;;;;;;;9.77;2.67;;;5.70;99.90;;;;;;5032369;28;20171;-71
2023/01/31 00:56:19;;;;;;;6.20;2.57;;;5.60;99.90;;;;;;5032352;28;20460;-70
2023/01/31 00:58:45;;;;;;;6.80;2.40;;;5.40;99.90;;;;;;5032239;28;20266;-70
2023/01/31 01:01:18;;;;;;;4.97;1.77;;;5.40;99.90;;;;;;5032276;28;20529;-70
2023/01/31 01:03:44;;;;;;;4.60;1.70;;;5.20;99.90;;;;;;5032407;28;20481;-71
2023/01/31 01:06:10;;;;;;;5.93;2.30;;;5.10;99.90;;;;;;5031996;28;20407;-71
2023/01/31 01:08:37;;;;;;;3.50;1.60;;;5.10;99.90;;;;;;5030928;28;20445;-71
2023/01/31 01:11:21;;;;;;;8.37;2.60;;;4.90;99.90;;;;;;5030681;28;20434;-70
2023/01/31 01:13:47;;;;;;;9.10;1.90;;;4.80;99.90;;;;;;5032248;28;20501;-70
2023/01/31 01:16:15;;;;;;;3.00;1.77;;;4.80;99.90;;;;;;5039288;28;20500;-70
2023/01/31 01:18:43;;;;;;;4.73;2.50;;;4.80;99.90;;;;;;5052099;28;20464;-70
2023/01/31 01:21:12;;;;;;;7.37;2.97;;;4.90;99.90;;;;;;5051918;28;20407;-70
2023/01/31 01:23:39;;;;;;;9.30;2.70;;;4.80;99.90;;;;;;5051992;28;20412;-70
2023/01/31 01:26:05;;;;;;;14.90;3.43;;;4.90;99.90;;;;;;5051728;28;20406;-70
2023/01/31 01:28:34;;;;;;;16.27;3.10;;;4.90;99.90;;;;;;5051815;28;20413;-70
2023/01/31 01:31:04;;;;;;;5.33;2.07;;;4.90;99.90;;;;;;5051806;28;20456;-70
2023/01/31 01:33:30;;;;;;;18.23;3.43;;;4.90;99.90;;;;;;5051795;28;20414;-70
2023/01/31 01:36:03;;;;;;;12.53;2.70;;;4.90;99.90;;;;;;5051592;28;20591;-70
2023/01/31 01:38:28;;;;;;;9.67;2.33;;;4.90;99.90;;;;;;5051711;28;21005;-71
2023/01/31 01:40:54;;;;;;;6.40;2.20;;;4.80;99.90;;;;;;5054790;28;20504;-70
2023/01/31 01:43:20;;;;;;;4.23;1.90;;;4.90;99.90;;;;;;5058516;28;20651;-70
2023/01/31 01:45:45;;;;;;;4.63;1.83;;;4.90;99.90;;;;;;5046460;28;20183;-70
2023/01/31 01:48:15;;;;;;;7.83;2.30;;;4.90;99.90;;;;;;5052566;28;20182;-71
2023/01/31 01:50:45;;;;;;;7.57;2.70;;;4.90;99.90;;;;;;5055753;28;20413;-70
2023/01/31 01:53:15;;;;;;;12.83;2.53;;;4.90;99.90;;;;;;5055720;28;21160;-70
2023/01/31 01:56:05;;;;;;;12.23;2.63;;;4.90;99.90;;;;;;5054207;28;20413;-71
2023/01/31 01:58:51;;;;;;;4.13;1.67;;;4.90;99.90;;;;;;5055686;28;20397;-70
2023/01/31 02:01:17;;;;;;;13.70;3.33;;;4.90;99.90;;;;;;5055634;28;20400;-73
2023/01/31 02:03:45;;;;;;;11.67;3.33;;;4.90;99.90;;;;;;5055512;28;20427;-70
2023/01/31 02:06:11;;;;;;;14.60;2.10;;;4.80;99.90;;;;;;5055225;28;20457;-69
2023/01/31 02:08:39;;;;;;;2.83;1.63;;;4.80;99.90;;;;;;5055497;28;20461;-69
2023/01/31 02:11:08;;;;;;;5.43;2.37;;;4.70;99.90;;;;;;5055173;28;20278;-72
2023/01/31 02:13:35;;;;;;;4.73;2.00;;;4.70;99.90;;;;;;5055320;28;20412;-72
2023/01/31 02:16:01;;;;;;;6.83;2.90;;;4.60;99.90;;;;;;5043834;28;20414;-71
2023/01/31 02:18:27;;;;;;;3.93;2.17;;;4.60;99.90;;;;;;5036067;28;20497;-72
2023/01/31 02:21:19;;;;;;;5.30;2.20;;;4.60;99.90;;;;;;5035308;28;20178;-72
2023/01/31 02:24:06;;;;;;;6.23;2.67;;;4.60;99.90;;;;;;5033963;28;20406;-71
2023/01/31 02:26:47;;;;;;;6.13;1.70;;;4.60;99.90;;;;;;5034952;28;20501;-71
2023/01/31 02:29:50;;;;;;;9.10;2.10;;;4.50;99.90;;;;;;5035030;28;20445;-71
2023/01/31 02:32:30;;;;;;;7.63;1.80;;;4.50;99.90;;;;;;5034986;28;20556;-71
2023/01/31 02:35:04;;;;;;;3.63;2.10;;;4.50;99.90;;;;;;5034614;28;20425;-70
2023/01/31 02:37:53;;;;;;;3.60;1.50;;;4.40;99.90;;;;;;5034572;28;20405;-71
2023/01/31 02:40:32;;;;;;;18.17;2.83;;;4.40;99.90;;;;;;5034715;28;20429;-71
2023/01/31 02:43:17;;;;;;;22.87;7.37;;;4.40;99.90;;;;;;5034747;28;20505;-72
2023/01/31 02:45:58;;;;;;;9.53;3.47;;;4.40;99.90;;;;;;5042724;28;20456;-70
2023/01/31 02:48:52;;;;;;;10.33;2.37;;;4.50;99.90;;;;;;5034673;28;20441;-72
2023/01/31 02:51:33;;;;;;;6.30;2.30;;;4.40;99.90;;;;;;5052863;28;20463;-72
2023/01/31 02:54:19;;;;;;;14.40;3.83;;;4.40;99.90;;;;;;5057258;28;20401;-74
2023/01/31 02:56:46;;;;;;;5.50;2.17;;;4.40;99.90;;;;;;5054550;28;20484;-72
2023/01/31 02:59:25;;;;;;;13.13;3.43;;;4.30;99.90;;;;;;5054239;28;20828;-72
2023/01/31 03:01:58;;;;;;;4.10;2.07;;;4.30;99.90;;;;;;5054403;28;20831;-72
2023/01/31 03:04:24;;;;;;;3.77;2.03;;;4.20;99.90;;;;;;5054131;28;20500;-72
2023/01/31 03:07:14;;;;;;;11.10;2.40;;;4.20;99.90;;;;;;5054206;28;20485;-72
2023/01/31 03:09:46;;;;;;;8.20;2.40;;;4.20;99.90;;;;;;5054209;28;20213;-71
2023/01/31 03:12:53;;;;;;;12.70;2.37;;;4.10;99.90;;;;;;5054195;28;20445;-72
2023/01/31 03:18:35;;;;;;;5.03;2.23;;;4.00;99.90;;;;;;5034358;28;20413;-70
2023/01/31 03:21:10;;;;;;;7.10;2.60;;;4.00;99.90;;;;;;5034220;28;20409;-71
2023/01/31 03:23:38;;;;;;;9.43;3.07;;;4.00;99.90;;;;;;5034090;28;20434;-72
2023/01/31 03:26:05;;;;;;;5.20;2.67;;;4.00;99.90;;;;;;5033751;28;20436;-72
2023/01/31 03:28:35;;;;;;;5.33;2.60;;;3.90;99.90;;;;;;5033886;28;20402;-71
2023/01/31 03:31:07;;;;;;;7.60;3.00;;;3.90;99.90;;;;;;5033975;28;20410;-71
2023/01/31 03:33:44;;;;;;;13.07;3.40;;;3.80;99.90;;;;;;5033778;28;20532;-71
2023/01/31 03:36:36;;;;;;;12.13;3.03;;;3.80;99.90;;;;;;5033639;28;20410;-72
2023/01/31 03:39:38;;;;;;;13.40;3.60;;;3.70;99.90;;;;;;5033768;28;20923;-73
2023/01/31 03:42:06;;;;;;;3.90;2.90;;;3.70;99.90;;;;;;5033763;28;20441;-71
2023/01/31 03:45:00;;;;;;;11.50;3.03;;;3.60;99.90;;;;;;5033305;28;20406;-72
2023/01/31 03:47:38;;;;;;;10.03;3.20;;;3.60;99.90;;;;;;5034917;28;20418;-72
2023/01/31 03:50:12;;;;;;;6.77;2.00;;;3.60;99.90;;;;;;5032055;28;20437;-72
2023/01/31 03:52:44;;;;;;;6.77;2.90;;;3.50;99.90;;;;;;5033537;28;21088;-70
2023/01/31 03:55:21;;;;;;;9.77;2.83;;;3.50;99.90;;;;;;5033110;28;20934;-72
2023/01/31 03:57:52;;;;;;;15.30;3.90;;;3.50;99.90;;;;;;5033502;28;20398;-71
2023/01/31 04:00:21;;;;;;;4.17;2.23;;;3.40;99.90;;;;;;5033187;28;20438;-71
2023/01/31 04:03:03;;;;;;;7.20;3.20;;;3.40;99.90;;;;;;5060768;28;20451;-70
2023/01/31 04:05:31;;;;;;;11.37;3.33;;;3.50;99.90;;;;;;5033119;28;20432;-70
2023/01/31 04:07:58;;;;;;;8.23;3.33;;;3.50;99.90;;;;;;5033260;28;20478;-71
2023/01/31 04:10:25;;;;;;;7.00;2.47;;;3.40;99.90;;;;;;5033027;28;20449;-71
2023/01/31 04:12:50;;;;;;;9.30;3.23;;;3.40;99.90;;;;;;5032992;28;21145;-71
2023/01/31 04:15:16;;;;;;;9.23;3.33;;;3.40;99.90;;;;;;5045946;28;20435;-71
2023/01/31 04:17:42;;;;;;;7.93;3.23;;;3.50;99.90;;;;;;5052954;28;20159;-72
2023/01/31 04:20:08;;;;;;;3.07;2.37;;;3.40;99.90;;;;;;5052928;28;20421;-72
2023/01/31 04:22:34;;;;;;;10.40;3.90;;;3.40;99.90;;;;;;5052736;28;20178;-72
2023/01/31 04:25:00;;;;;;;8.60;3.60;;;3.40;99.90;;;;;;5052443;28;20927;-72
2023/01/31 04:27:26;;;;;;;16.23;3.30;;;3.40;99.90;;;;;;5052821;28;20182;-71
2023/01/31 04:29:52;;;;;;;7.07;3.83;;;3.50;99.90;;;;;;5051257;28;20429;-72
2023/01/31 04:32:17;;;;;;;29.67;4.27;;;3.50;99.90;;;;;;5051254;28;20571;-72
2023/01/31 04:34:43;;;;;;;8.07;3.30;;;3.50;99.90;;;;;;5052382;28;20644;-71
2023/01/31 04:37:08;;;;;;;8.30;4.13;;;3.40;99.90;;;;;;5052698;28;20297;-71
2023/01/31 04:39:34;;;;;;;15.83;4.20;;;3.40;99.90;;;;;;5052345;28;20652;-71
2023/01/31 04:41:59;;;;;;;25.50;6.10;;;3.40;99.90;;;;;;5052528;28;20201;-72
2023/01/31 04:44:25;;;;;;;10.90;5.00;;;3.40;99.90;;;;;;5045930;28;20187;-69
2023/01/31 04:46:50;;;;;;;13.80;3.87;;;3.50;99.90;;;;;;5050506;28;20178;-69
2023/01/31 04:49:16;;;;;;;11.70;4.10;;;3.50;99.90;;;;;;5052382;28;20187;-70
2023/01/31 04:51:41;;;;;;;12.40;4.00;;;3.60;99.90;;;;;;5052233;28;20195;-72
2023/01/31 04:54:07;;;;;;;8.00;4.73;;;3.60;99.90;;;;;;5052394;28;20576;-73
2023/01/31 04:56:33;;;;;;;17.03;5.10;;;3.50;99.90;;;;;;5051829;28;20643;-73
2023/01/31 04:58:58;;;;;;;6.33;3.33;;;3.60;99.90;;;;;;5052230;28;20191;-71
2023/01/31 05:01:24;;;;;;;13.70;3.90;;;3.60;99.90;;;;;;5052184;28;20163;-71
2023/01/31 05:03:50;;;;;;;9.40;4.60;;;3.60;99.90;;;;;;5052209;28;20167;-72
2023/01/31 05:06:16;;;;;;;21.20;8.37;;;3.60;99.90;;;;;;5051873;28;20420;-72
2023/01/31 05:08:41;;;;;;;9.50;5.07;;;3.60;99.90;;;;;;5062902;28;20229;-72
2023/01/31 05:11:07;;;;;;;15.37;4.60;;;3.60;99.90;;;;;;5053185;28;20190;-74
2023/01/31 05:13:37;;;;;;;12.77;4.37;;;3.60;99.90;;;;;;5049294;28;20193;-72
2023/01/31 05:16:05;;;;;;;6.33;3.70;;;3.60;99.90;;;;;;5031885;28;20398;-73
2023/01/31 05:18:30;;;;;;;21.70;4.50;;;3.60;99.90;;;;;;5031901;28;20922;-73
2023/01/31 05:20:56;;;;;;;9.53;3.77;;;3.60;99.90;;;;;;5030832;28;20409;-72
2023/01/31 05:23:21;;;;;;;14.03;4.53;;;3.70;99.90;;;;;;5031875;28;20168;-72
2023/01/31 05:25:49;;;;;;;12.10;5.03;;;3.70;99.90;;;;;;5031707;28;20168;-72
2023/01/31 05:28:15;;;;;;;10.13;4.43;;;3.80;99.90;;;;;;5031977;28;20187;-72
2023/01/31 05:30:40;;;;;;;17.90;5.60;;;3.90;99.90;;;;;;5031915;28;20448;-72
2023/01/31 05:33:06;;;;;;;10.77;5.10;;;4.00;99.90;;;;;;5031943;28;20245;-71
2023/01/31 05:35:32;;;;;;;12.30;4.90;;;4.00;99.90;;;;;;5031603;28;20168;-71
2023/01/31 05:37:57;;;;;;;9.47;4.87;;;4.00;99.90;;;;;;5031829;28;20159;-71
2023/01/31 05:40:23;;;;;;;18.97;5.33;;;4.10;99.90;;;;;;5031628;28;20184;-71
2023/01/31 05:42:56;;;;;;;5.93;4.20;;;4.10;99.90;;;;;;5031931;28;20167;-71
2023/01/31 05:45:22;;;;;;;14.67;4.40;;;4.20;99.90;;;;;;5031529;28;20175;-71
2023/01/31 05:47:48;;;;;;;13.33;5.50;;;4.20;99.90;;;;;;5031822;28;20398;-70
2023/01/31 05:50:14;;;;;;;12.47;5.67;;;4.30;99.90;;;;;;5031724;28;20943;-72
2023/01/31 05:52:40;;;;;;;14.03;4.13;;;4.30;99.90;;;;;;5031553;28;20492;-70
2023/01/31 05:55:06;;;;;;;8.33;4.30;;;4.40;99.90;;;;;;5031376;28;20418;-73
2023/01/31 05:57:31;;;;;;;17.40;5.53;;;4.30;99.90;;;;;;5031920;28;20167;-74
2023/01/31 05:59:57;;;;;;;14.93;4.90;;;4.40;99.90;;;;;;5031680;28;20434;-71
2023/01/31 06:02:22;;;;;;;10.23;5.77;;;4.40;99.90;;;;;;5050304;28;20666;-71
2023/01/31 06:04:48;;;;;;;9.53;4.07;;;4.40;99.90;;;;;;5051330;28;20179;-71
2023/01/31 06:07:14;;;;;;;11.33;3.87;;;4.40;99.90;;;;;;5051482;28;20198;-72
2023/01/31 06:09:40;;;;;;;6.67;3.80;;;4.30;99.90;;;;;;5051281;28;20499;-72
2023/01/31 06:12:10;;;;;;;12.20;4.70;;;4.30;99.90;;;;;;5051554;28;20233;-73
2023/01/31 06:14:36;;;;;;;7.90;2.83;;;4.20;99.90;;;;;;5049944;28;20417;-73
2023/01/31 06:17:02;;;;;;;13.03;4.10;;;4.30;99.90;;;;;;5051540;28;20408;-73
2023/01/31 06:19:28;;;;;;;11.40;4.23;;;4.30;99.90;;;;;;5055352;28;20293;-73
2023/01/31 06:21:53;;;;;;;14.73;4.77;;;4.30;99.90;;;;;;5058624;28;20492;-73
2023/01/31 06:24:20;;;;;;;17.90;4.13;;;4.30;99.90;;;;;;5050832;28;20266;-71
2023/01/31 06:26:46;;;;;;;12.10;4.17;;;4.30;99.90;;;;;;5054625;28;20216;-72
2023/01/31 06:29:11;;;;;;;5.23;3.17;;;4.40;99.90;;;;;;5054932;28;20440;-72
2023/01/31 06:31:37;;;;;;;9.93;2.83;;;4.40;99.90;;;;;;5054916;28;20520;-72
2023/01/31 06:34:02;;;;;;;23.97;3.90;;;4.60;99.90;;;;;;5055039;28;20171;-74
2023/01/31 06:36:30;;;;;;;11.73;3.60;;;4.60;99.90;;;;;;5053327;28;20177;-72
2023/01/31 06:38:56;;;;;;;9.23;3.53;;;4.70;99.90;;;;;;5054794;28;20189;-72
2023/01/31 06:41:21;;;;;;;6.03;3.40;;;4.70;99.90;;;;;;5054793;28;20776;-72
2023/01/31 06:43:47;;;;;;;9.70;3.53;;;4.70;99.90;;;;;;5050269;28;20185;-71
2023/01/31 06:46:13;;;;;;;13.60;4.50;;;4.70;99.90;;;;;;5047471;28;20167;-71
2023/01/31 06:48:39;;;;;;;13.10;4.00;;;4.80;99.90;;;;;;5054694;28;20524;-71
2023/01/31 06:51:05;;;;;;;6.27;2.93;;;4.80;99.90;;;;;;5053424;28;20512;-71
2023/01/31 06:53:30;;;;;;;10.13;2.50;;;4.90;99.90;;;;;;5054465;28;20202;-72
2023/01/31 06:55:56;;;;;;;12.40;3.50;;;4.80;99.90;;;;;;5054325;28;20171;-71
2023/01/31 06:58:22;;;;;;;7.00;4.40;;;4.80;99.90;;;;;;5054450;28;20163;-72
2023/01/31 07:00:47;;;;;;;8.83;2.60;;;4.80;99.90;;;;;;5054530;28;20798;-72
2023/01/31 07:03:13;;;;;;;9.90;3.30;;;4.90;99.90;;;;;;5054390;28;20175;-72
2023/01/31 07:05:39;;;;;;;7.33;3.33;;;4.90;99.90;;;;;;5054178;28;20707;-72
2023/01/31 07:08:04;;;;;;;13.67;2.90;;;4.90;99.90;;;;;;5054206;28;20181;-71
2023/01/31 07:10:30;;;;;;;5.40;2.47;;;4.90;99.90;;;;;;5054228;28;20207;-72
2023/01/31 07:12:55;;;;;;;9.87;2.77;;;4.80;99.90;;;;;;5049207;28;20678;-71
2023/01/31 07:15:21;;;;;;;3.80;2.63;;;4.80;99.90;;;;;;5034133;28;20174;-71
2023/01/31 07:17:46;;;;;;;6.87;2.33;;;4.80;99.90;;;;;;5034274;28;20172;-71
2023/01/31 07:20:12;;;;;;;10.70;3.10;;;4.90;99.90;;;;;;5034193;28;20245;-72
2023/01/31 07:22:38;;;;;;;3.80;2.40;;;4.90;99.90;;;;;;5034124;28;20168;-72
2023/01/31 07:25:03;;;;;;;5.53;2.30;;;5.00;99.90;;;;;;5033794;28;20176;-70
2023/01/31 07:27:29;;;;;;;15.60;2.80;;;5.10;99.90;;;;;;5032874;28;20183;-70
2023/01/31 07:29:54;;;;;;;8.10;2.47;;;5.10;99.90;;;;;;5033404;28;20215;-72
2023/01/31 07:32:20;;;;;;;3.43;2.43;;;5.10;99.90;;;;;;5065967;28;20637;-72
2023/01/31 07:34:45;;;;;;;7.23;2.53;;;5.20;99.90;;;;;;5053401;28;20250;-70
2023/01/31 07:37:11;;;;;;;4.07;2.30;;;5.20;99.90;;;;;;5051701;28;20227;-72
2023/01/31 07:39:36;;;;;;;5.53;2.40;;;5.20;99.90;;;;;;5053624;28;20229;-72
2023/01/31 07:42:02;;;;;;;4.23;2.30;;;5.20;99.90;;;;;;5045727;28;20191;-71
2023/01/31 07:44:27;;;;;;;5.93;2.00;;;5.30;99.90;;;;;;5034967;28;20187;-72
2023/01/31 07:46:55;;;;;;;4.00;2.80;;;5.30;99.90;;;;;;5033618;28;20648;-72
2023/01/31 07:49:21;;;;;;;10.40;2.77;;;5.30;99.90;;;;;;5033610;28;20281;-72
2023/01/31 07:51:46;;;;;;;6.53;2.43;;;5.30;99.90;;;;;;5033349;28;20487;-71
2023/01/31 07:54:12;;;;;;;8.60;2.20;;;5.30;99.90;;;;;;5033454;28;20668;-74
2023/01/31 07:56:37;;;;;;;10.00;3.00;;;5.30;99.90;;;;;;5032094;28;20199;-73
2023/01/31 07:59:03;;;;;;;17.00;2.53;;;5.30;99.90;;;;;;5033404;28;20187;-70
2023/01/31 08:04:14;;;;;;;5.73;2.70;;;5.30;99.90;;;;;;5033112;28;20671;-73
2023/01/31 08:06:42;;;;;;;9.47;2.70;;;5.40;99.90;;;;;;5033156;28;20413;-72
2023/01/31 08:09:07;;;;;;;8.53;2.97;;;5.40;99.90;;;;;;5032913;28;20446;-70
2023/01/31 08:11:33;;;;;;;12.33;2.87;;;5.50;99.90;;;;;;5033292;28;20453;-71
2023/01/31 08:13:58;;;;;;;4.27;2.33;;;5.60;99.90;;;;;;5033091;28;20172;-72
2023/01/31 08:16:24;;;;;;;5.37;2.63;;;5.70;99.90;;;;;;5032931;28;20697;-72
2023/01/31 08:18:51;;;;;;;6.97;2.40;;;5.70;99.90;;;;;;5032974;28;20199;-71
2023/01/31 08:21:17;;;;;;;3.43;2.10;;;5.70;99.90;;;;;;5033006;28;20406;-72
2023/01/31 08:23:44;;;;;;;12.13;2.00;;;5.80;99.90;;;;;;5032893;28;20410;-72
2023/01/31 08:26:11;;;;;;;9.13;2.20;;;5.90;99.90;;;;;;5032695;28;20402;-71
2023/01/31 08:28:38;;;;;;;15.30;2.77;;;6.00;99.90;;;;;;5032795;28;20513;-76
2023/01/31 08:31:04;;;;;;;7.60;2.83;;;5.90;99.90;;;;;;5032722;28;20417;-74
2023/01/31 08:33:30;;;;;;;6.33;2.90;;;6.00;99.90;;;;;;5032806;28;20463;-74
2023/01/31 08:35:55;;;;;;;12.00;3.00;;;6.10;99.90;;;;;;5032288;28;20406;-72
2023/01/31 08:38:21;;;;;;;5.33;1.80;;;6.30;99.90;;;;;;5032693;28;20625;-72
2023/01/31 08:40:46;;;;;;;6.20;3.00;;;6.40;99.90;;;;;;5034271;28;20525;-72
2023/01/31 08:43:12;;;;;;;14.83;3.10;;;6.40;99.90;;;;;;5063352;28;20197;-73
2023/01/31 08:45:38;;;;;;;8.13;2.20;;;6.50;99.90;;;;;;5044980;28;20222;-73
2023/01/31 08:48:04;;;;;;;9.93;2.93;;;6.50;99.90;;;;;;5032281;28;20410;-73
2023/01/31 08:50:31;;;;;;;7.77;3.03;;;6.50;99.90;;;;;;5031968;28;20199;-72
2023/01/31 08:53:02;;;;;;;4.67;2.00;;;6.70;99.90;;;;;;5032277;28;20481;-73
2023/01/31 08:55:30;;;;;;;8.13;2.53;;;6.70;99.90;;;;;;5032231;28;20488;-72
2023/01/31 08:57:56;;;;;;;5.50;2.07;;;6.70;99.90;;;;;;5030932;28;20505;-72
2023/01/31 09:00:22;;;;;;;9.03;2.73;;;6.80;99.90;;;;;;5032017;28;20513;-72
2023/01/31 09:02:56;;;;;;;9.67;2.70;;;6.90;99.90;;;;;;5030765;28;20180;-73
2023/01/31 09:05:24;;;;;;;5.20;1.93;;;6.90;99.90;;;;;;5032011;28;20418;-73
2023/01/31 09:07:50;;;;;;;7.03;2.53;;;7.10;99.90;;;;;;5031637;28;20513;-72
2023/01/31 09:10:20;;;;;;;4.33;2.13;;;7.20;99.90;;;;;;5032194;28;20472;-73
2023/01/31 09:12:46;;;;;;;8.17;2.60;;;7.10;99.90;;;;;;5032229;28;20458;-72
2023/01/31 09:15:11;;;;;;;6.03;2.20;;;7.20;99.90;;;;;;5030286;28;20410;-70
2023/01/31 09:17:38;;;;;;;5.20;2.03;;;7.10;99.90;;;;;;5032092;28;20409;-72
2023/01/31 09:20:06;;;;;;;4.43;1.80;;;7.10;99.90;;;;;;5031927;28;20188;-72
2023/01/31 09:22:33;;;;;;;5.47;2.43;;;6.90;99.90;;;;;;5030820;28;20505;-72
2023/01/31 09:24:59;;;;;;;9.03;2.67;;;6.90;99.90;;;;;;5031727;28;20414;-72
2023/01/31 09:27:25;;;;;;;3.57;2.17;;;7.10;99.90;;;;;;5032172;28;20410;-72
2023/01/31 09:29:51;;;;;;;4.40;2.40;;;7.20;99.90;;;;;;5031110;28;20445;-72
2023/01/31 09:32:16;;;;;;;5.20;2.10;;;7.20;99.90;;;;;;5030678;28;20464;-73
2023/01/31 09:34:42;;;;;;;5.67;2.50;;;7.10;99.90;;;;;;5031581;28;20190;-71
2023/01/31 09:37:07;;;;;;;4.13;2.17;;;7.10;99.90;;;;;;5031880;28;20171;-72
2023/01/31 09:39:33;;;;;;;5.90;1.90;;;7.20;99.90;;;;;;5034777;28;20253;-73
2023/01/31 09:42:21;;;;;;;6.73;2.27;;;7.40;99.90;;;;;;5051348;28;20193;-72
2023/01/31 09:44:58;;;;;;;5.90;2.93;;;7.70;99.90;;;;;;5050003;28;20173;-73
2023/01/31 09:47:32;;;;;;;9.10;2.17;;;7.90;99.90;;;;;;5031505;28;20822;-74
2023/01/31 09:50:04;;;;;;;6.70;2.70;;;8.00;99.90;;;;;;5052791;28;20957;-74
2023/01/31 09:52:31;;;;;;;8.83;2.50;;;8.00;99.90;;;;;;5053577;28;20514;-73
2023/01/31 09:54:56;;;;;;;7.50;2.13;;;8.00;99.90;;;;;;5051193;28;20502;-73
2023/01/31 09:57:49;;;;;;;6.20;2.30;;;7.90;99.90;;;;;;5050208;28;20437;-73
2023/01/31 10:00:31;;;;;;;5.77;2.03;;;7.90;99.90;;;;;;5052452;28;20182;-72
2023/01/31 10:03:18;;;;;;;3.43;2.27;;;7.90;99.90;;;;;;5055124;28;20926;-72
2023/01/31 10:05:49;;;;;;;10.57;2.93;;;8.10;99.90;;;;;;5043918;28;20458;-72
2023/01/31 10:08:35;;;;;;;4.17;2.00;;;8.20;99.90;;;;;;5035293;28;20409;-72
2023/01/31 10:11:04;;;;;;;5.00;2.40;;;8.30;99.90;;;;;;5035230;28;20425;-72
2023/01/31 10:13:42;;;;;;;8.70;3.23;;;8.20;99.90;;;;;;5035214;28;21347;-72
2023/01/31 10:16:44;;;;;;;7.37;2.50;;;8.20;99.90;;;;;;5034841;28;20402;-72
2023/01/31 10:19:43;;;;;;;5.60;2.77;;;8.00;99.90;;;;;;5034849;28;20437;-72
2023/01/31 10:22:16;;;;;;;5.13;2.63;;;8.00;99.90;;;;;;5034852;28;20445;-72
2023/01/31 10:24:56;;;;;;;7.93;2.03;;;8.00;99.90;;;;;;5034439;28;20402;-71
2023/01/31 10:27:39;;;;;;;7.97;2.67;;;8.00;99.90;;;;;;5034918;28;20520;-70
2023/01/31 10:30:16;;;;;;;12.03;2.80;;;8.10;99.90;;;;;;5034695;28;20509;-71
2023/01/31 10:32:47;;;;;;;6.53;5.03;;;8.20;99.90;;;;;;5034815;28;21002;-70
2023/01/31 10:35:29;;;;;;;7.37;4.70;;;8.20;99.90;;;;;;5035595;28;20810;-72
2023/01/31 10:38:18;;;;;;;6.57;2.00;;;8.20;99.90;;;;;;5046689;28;20401;-71
2023/01/31 10:40:50;;;;;;;6.00;1.83;;;8.30;99.90;;;;;;5050333;28;20788;-73
2023/01/31 10:43:28;;;;;;;4.70;2.23;;;8.20;99.90;;;;;;5053358;28;20425;-71
2023/01/31 10:45:57;;;;;;;2.97;2.67;;;8.20;99.90;;;;;;5043776;28;20410;-71
2023/01/31 10:48:26;;;;;;;7.77;3.00;;;8.20;99.90;;;;;;5034434;28;20406;-71
2023/01/31 10:51:06;;;;;;;8.93;3.27;;;8.20;99.90;;;;;;5034407;28;20464;-71
2023/01/31 10:53:31;;;;;;;9.70;2.80;;;8.10;99.90;;;;;;5034314;28;20418;-71
2023/01/31 10:56:10;;;;;;;16.10;3.43;;;8.40;99.90;;;;;;5034110;28;20398;-71
2023/01/31 10:58:37;;;;;;;11.27;2.60;;;8.60;99.90;;;;;;5033936;28;20246;-76
2023/01/31 11:01:07;;;;;;;6.90;2.50;;;8.70;99.90;;;;;;5049735;28;20408;-71
2023/01/31 11:03:33;;;;;;;8.80;2.23;;;8.80;99.90;;;;;;5058724;28;20405;-71
2023/01/31 11:05:59;;;;;;;4.33;2.63;;;8.90;99.90;;;;;;5052344;28;20491;-72
2023/01/31 11:08:44;;;;;;;5.83;2.90;;;8.90;99.90;;;;;;5054055;28;21020;-70
2023/01/31 11:11:16;;;;;;;14.33;3.43;;;8.80;99.90;;;;;;5053787;28;20309;-71
2023/01/31 11:14:01;;;;;;;11.83;3.40;;;8.90;99.90;;;;;;5053334;28;20492;-70
2023/01/31 11:16:32;;;;;;;6.43;3.00;;;9.20;99.90;;;;;;5051275;28;20987;-71
2023/01/31 11:19:00;;;;;;;5.67;2.70;;;9.60;99.90;;;;;;5033982;28;20437;-71
2023/01/31 11:21:29;;;;;;;9.50;3.67;;;9.60;99.90;;;;;;5034037;28;20884;-72
2023/01/31 11:24:04;;;;;;;5.07;2.47;;;9.40;99.90;;;;;;5033635;28;20796;-72
2023/01/31 11:26:42;;;;;;;10.73;2.27;;;9.30;99.90;;;;;;5040666;28;20490;-72
2023/01/31 11:29:17;;;;;;;7.73;2.23;;;9.50;99.90;;;;;;5043504;28;20464;-72
2023/01/31 11:31:46;;;;;;;9.73;1.93;;;9.50;99.90;;;;;;5042831;28;20452;-72
2023/01/31 11:34:28;;;;;;;6.20;2.40;;;9.70;99.90;;;;;;5042168;28;20437;-72
2023/01/31 11:37:11;;;;;;;9.57;2.60;;;9.90;99.90;;;;;;5046845;28;20413;-72
2023/01/31 11:39:38;;;;;;;13.03;3.10;;;9.70;99.90;;;;;;5052087;28;20433;-72
2023/01/31 11:42:14;;;;;;;6.83;2.43;;;9.40;99.90;;;;;;5053396;28;20409;-75
2023/01/31 11:45:03;;;;;;;4.93;2.37;;;9.50;99.90;;;;;;5052755;28;20883;-72
2023/01/31 11:48:16;;;;;;;7.43;2.60;;;9.60;99.90;;;;;;5033414;28;20438;-72
2023/01/31 11:51:01;;;;;;;4.80;1.97;;;9.80;99.90;;;;;;5011134;28;20439;-72
2023/01/31 11:53:37;;;;;;;4.70;2.60;;;9.90;99.90;;;;;;4994615;28;20443;-72
2023/01/31 11:56:15;;;;;;;5.23;1.70;;;9.80;99.90;;;;;;5026880;28;20926;-70
2023/01/31 11:58:42;;;;;;;5.97;2.33;;;9.90;99.90;;;;;;5033132;28;20429;-71
2023/01/31 12:01:15;;;;;;;4.60;2.30;;;10.20;99.90;;;;;;5033112;28;20489;-72
2023/01/31 12:04:00;;;;;;;4.73;2.30;;;10.30;99.90;;;;;;5033094;28;20418;-71
2023/01/31 12:06:40;;;;;;;4.20;2.30;;;10.10;99.90;;;;;;5032897;28;20413;-72
2023/01/31 12:09:20;;;;;;;8.30;2.13;;;9.80;99.90;;;;;;5031473;28;20441;-72
2023/01/31 12:11:50;;;;;;;6.03;3.10;;;9.60;99.90;;;;;;5043583;28;20472;-72
2023/01/31 12:14:18;;;;;;;5.30;2.30;;;9.50;99.90;;;;;;5060760;28;20782;-72
2023/01/31 12:16:45;;;;;;;3.50;2.13;;;9.60;99.90;;;;;;5052795;28;20436;-72
2023/01/31 12:19:11;;;;;;;3.93;2.00;;;9.70;99.90;;;;;;5032711;28;21032;-72
2023/01/31 12:21:54;;;;;;;2.20;1.90;;;9.80;99.90;;;;;;5032818;28;20502;-72
2023/01/31 12:24:54;;;;;;;3.80;2.20;;;10.20;99.90;;;;;;5032063;28;20167;-71
2023/01/31 12:27:46;;;;;;;6.60;2.80;;;10.60;99.90;;;;;;5032620;28;20907;-73
2023/01/31 12:30:43;;;;;;;8.70;2.40;;;10.60;99.90;;;;;;5032462;28;20450;-72
2023/01/31 12:33:40;;;;;;;6.67;2.10;;;10.40;99.90;;;;;;5034429;28;20454;-72
2023/01/31 12:36:11;;;;;;;4.37;2.40;;;10.20;99.90;;;;;;5050491;28;20482;-72
2023/01/31 12:38:50;;;;;;;4.20;2.00;;;10.00;99.90;;;;;;5052373;28;20401;-72
2023/01/31 12:41:32;;;;;;;10.63;2.40;;;10.00;99.90;;;;;;5052147;28;20400;-71
2023/01/31 12:44:19;;;;;;;5.97;2.30;;;9.90;99.90;;;;;;5052224;28;20958;-72
2023/01/31 12:47:32;;;;;;;3.97;2.10;;;9.70;99.90;;;;;;5033762;28;21046;-72
2023/01/31 12:50:40;;;;;;;6.23;2.50;;;9.50;99.90;;;;;;5030416;28;20487;-72
2023/01/31 12:53:32;;;;;;;4.23;2.80;;;9.50;99.90;;;;;;5032030;28;20519;-73
2023/01/31 12:56:03;;;;;;;7.87;2.60;;;9.50;99.90;;;;;;5031893;28;20484;-72
2023/01/31 12:58:49;;;;;;;6.80;3.20;;;9.70;99.90;;;;;;5032018;28;20430;-70
2023/01/31 13:01:30;;;;;;;4.50;2.60;;;9.50;99.90;;;;;;5032054;28;20888;-72
2023/01/31 13:03:58;;;;;;;3.57;2.40;;;9.40;99.90;;;;;;5041297;28;20405;-72
2023/01/31 13:06:56;;;;;;;5.73;2.33;;;9.30;99.90;;;;;;5051614;28;20448;-72
2023/01/31 13:09:30;;;;;;;4.90;2.47;;;9.30;99.90;;;;;;5051271;28;20531;-72
2023/01/31 13:12:03;;;;;;;10.03;3.13;;;9.20;99.90;;;;;;5051836;28;20495;-72
2023/01/31 13:14:35;;;;;;;5.67;5.10;;;9.30;99.90;;;;;;5051352;28;20409;-73
2023/01/31 13:17:04;;;;;;;7.60;2.83;;;9.00;99.90;;;;;;5051840;28;20400;-72
2023/01/31 13:19:45;;;;;;;4.10;1.80;;;8.90;99.90;;;;;;5050348;28;20436;-72